sensor_id;sensor_type;location;lat;lon;timestamp;P1;P2;P0
65360;PMS5003;51958;55.018;73.536;2024-02-26T00:02:32;21.00;18.67;14.00
65360;PMS5003;51958;55.018;73.536;2024-02-26T00:05:38;21.00;18.33;12.00
65360;PMS5003;51958;55.018;73.536;2024-02-26T00:08:40;21.00;17.50;12.00
65360;PMS5003;51958;55.018;73.536;2024-02-26T00:11:41;20.33;18.00;12.00
65360;PMS5003;51958;55.018;73.536;2024-02-26T00:14:42;21.00;18.00;13.00
65360;PMS5003;51958;55.018;73.536;2024-02-26T00:17:45;18.33;16.67;11.33
65360;PMS5003;51958;55.018;73.536;2024-02-26T00:20:47;16.00;14.67;11.00
65360;PMS5003;51958;55.018;73.536;2024-02-26T00:23:49;18.00;16.00;12.00
65360;PMS5003;51958;55.018;73.536;2024-02-26T00:26:51;18.33;17.00;11.00
65360;PMS5003;51958;55.018;73.536;2024-02-26T00:29:55;19.00;16.00;11.00
65360;PMS5003;51958;55.018;73.536;2024-02-26T00:32:56;18.33;16.00;9.00
65360;PMS5003;51958;55.018;73.536;2024-02-26T00:35:58;18.00;14.67;7.00
65360;PMS5003;51958;55.018;73.536;2024-02-26T00:38:59;16.00;14.00;7.00
65360;PMS5003;51958;55.018;73.536;2024-02-26T00:42:00;16.33;14.67;7.00
65360;PMS5003;51958;55.018;73.536;2024-02-26T00:45:01;19.00;18.00;9.00
65360;PMS5003;51958;55.018;73.536;2024-02-26T00:48:04;23.00;20.33;11.00
65360;PMS5003;51958;55.018;73.536;2024-02-26T00:51:07;23.33;21.00;12.00
65360;PMS5003;51958;55.018;73.536;2024-02-26T00:54:09;25.00;21.00;13.33
65360;PMS5003;51958;55.018;73.536;2024-02-26T00:57:11;26.67;21.00;14.00
65360;PMS5003;51958;55.018;73.536;2024-02-26T01:00:12;25.00;21.00;14.00
65360;PMS5003;51958;55.018;73.536;2024-02-26T01:03:14;26.33;21.67;14.67
65360;PMS5003;51958;55.018;73.536;2024-02-26T01:06:16;28.00;23.00;15.00
65360;PMS5003;51958;55.018;73.536;2024-02-26T01:09:18;28.00;22.33;14.00
65360;PMS5003;51958;55.018;73.536;2024-02-26T01:12:19;26.33;23.00;15.00
65360;PMS5003;51958;55.018;73.536;2024-02-26T01:15:21;27.00;23.00;15.00
65360;PMS5003;51958;55.018;73.536;2024-02-26T01:18:24;26.33;23.00;14.00
65360;PMS5003;51958;55.018;73.536;2024-02-26T01:21:26;25.33;23.00;15.00
65360;PMS5003;51958;55.018;73.536;2024-02-26T01:24:30;27.50;23.00;14.00
65360;PMS5003;51958;55.018;73.536;2024-02-26T01:27:31;27.33;23.00;15.00
65360;PMS5003;51958;55.018;73.536;2024-02-26T01:30:32;32.00;24.00;15.00
65360;PMS5003;51958;55.018;73.536;2024-02-26T01:33:33;32.00;23.00;15.00
65360;PMS5003;51958;55.018;73.536;2024-02-26T01:36:35;30.00;23.00;15.00
65360;PMS5003;51958;55.018;73.536;2024-02-26T01:39:36;26.00;21.00;13.33
65360;PMS5003;51958;55.018;73.536;2024-02-26T01:42:39;24.00;20.50;12.00
65360;PMS5003;51958;55.018;73.536;2024-02-26T01:45:40;21.50;20.50;11.00
65360;PMS5003;51958;55.018;73.536;2024-02-26T01:48:41;24.00;20.00;11.00
65360;PMS5003;51958;55.018;73.536;2024-02-26T01:51:43;27.00;22.50;13.50
65360;PMS5003;51958;55.018;73.536;2024-02-26T01:54:45;30.00;23.00;15.00
65360;PMS5003;51958;55.018;73.536;2024-02-26T01:57:47;31.00;24.00;15.00
65360;PMS5003;51958;55.018;73.536;2024-02-26T02:00:49;30.00;25.00;16.00
65360;PMS5003;51958;55.018;73.536;2024-02-26T02:03:51;28.00;23.00;13.50
65360;PMS5003;51958;55.018;73.536;2024-02-26T02:06:53;24.00;20.50;13.00
65360;PMS5003;51958;55.018;73.536;2024-02-26T02:09:54;23.00;20.00;13.00
65360;PMS5003;51958;55.018;73.536;2024-02-26T02:12:56;23.00;21.00;14.00
65360;PMS5003;51958;55.018;73.536;2024-02-26T02:15:57;25.00;20.50;14.00
65360;PMS5003;51958;55.018;73.536;2024-02-26T02:18:58;24.00;21.50;13.00
65360;PMS5003;51958;55.018;73.536;2024-02-26T02:22:00;24.00;20.50;12.00
65360;PMS5003;51958;55.018;73.536;2024-02-26T02:25:01;23.00;18.33;11.33
65360;PMS5003;51958;55.018;73.536;2024-02-26T02:28:03;23.50;20.50;13.50
65360;PMS5003;51958;55.018;73.536;2024-02-26T02:31:05;24.00;21.00;13.50
65360;PMS5003;51958;55.018;73.536;2024-02-26T02:34:07;23.00;20.33;13.33
65360;PMS5003;51958;55.018;73.536;2024-02-26T02:37:09;24.00;22.00;13.50
65360;PMS5003;51958;55.018;73.536;2024-02-26T02:40:10;27.00;22.00;14.00
65360;PMS5003;51958;55.018;73.536;2024-02-26T02:43:11;28.50;23.00;15.50
65360;PMS5003;51958;55.018;73.536;2024-02-26T02:46:13;33.50;25.00;16.00
65360;PMS5003;51958;55.018;73.536;2024-02-26T02:49:14;34.00;27.00;16.00
65360;PMS5003;51958;55.018;73.536;2024-02-26T02:52:15;35.00;27.50;17.00
65360;PMS5003;51958;55.018;73.536;2024-02-26T02:55:16;35.50;27.50;18.00
65360;PMS5003;51958;55.018;73.536;2024-02-26T02:58:19;35.00;28.00;18.00
65360;PMS5003;51958;55.018;73.536;2024-02-26T03:01:20;36.00;28.00;18.00
65360;PMS5003;51958;55.018;73.536;2024-02-26T03:04:21;36.00;28.50;18.00
65360;PMS5003;51958;55.018;73.536;2024-02-26T03:07:23;38.00;30.00;19.00
65360;PMS5003;51958;55.018;73.536;2024-02-26T03:10:24;36.00;28.00;18.00
65360;PMS5003;51958;55.018;73.536;2024-02-26T03:13:25;34.00;27.00;18.00
65360;PMS5003;51958;55.018;73.536;2024-02-26T03:16:27;32.00;26.00;16.00
65360;PMS5003;51958;55.018;73.536;2024-02-26T03:19:28;32.00;26.50;16.00
65360;PMS5003;51958;55.018;73.536;2024-02-26T03:22:30;34.33;28.00;18.00
65360;PMS5003;51958;55.018;73.536;2024-02-26T03:25:31;35.67;28.33;19.00
65360;PMS5003;51958;55.018;73.536;2024-02-26T03:28:32;35.00;28.33;18.67
65360;PMS5003;51958;55.018;73.536;2024-02-26T03:31:34;33.50;28.00;18.00
65360;PMS5003;51958;55.018;73.536;2024-02-26T03:34:35;34.67;28.67;18.00
65360;PMS5003;51958;55.018;73.536;2024-02-26T03:37:36;39.33;30.33;19.33
65360;PMS5003;51958;55.018;73.536;2024-02-26T03:40:38;37.00;30.67;19.33
65360;PMS5003;51958;55.018;73.536;2024-02-26T03:43:39;33.00;27.00;18.00
65360;PMS5003;51958;55.018;73.536;2024-02-26T03:46:40;33.00;27.00;17.50
65360;PMS5003;51958;55.018;73.536;2024-02-26T03:49:43;33.00;27.00;17.00
65360;PMS5003;51958;55.018;73.536;2024-02-26T03:52:44;34.00;28.00;18.00
65360;PMS5003;51958;55.018;73.536;2024-02-26T03:55:46;35.00;27.50;18.00
65360;PMS5003;51958;55.018;73.536;2024-02-26T03:58:47;33.50;27.00;17.00
65360;PMS5003;51958;55.018;73.536;2024-02-26T04:01:48;34.50;28.00;18.00
65360;PMS5003;51958;55.018;73.536;2024-02-26T04:04:50;35.67;27.00;17.67
65360;PMS5003;51958;55.018;73.536;2024-02-26T04:07:51;35.00;29.00;18.00
65360;PMS5003;51958;55.018;73.536;2024-02-26T04:10:52;35.50;28.00;17.50
65360;PMS5003;51958;55.018;73.536;2024-02-26T04:13:54;35.50;28.50;19.00
65360;PMS5003;51958;55.018;73.536;2024-02-26T04:16:55;37.00;30.00;19.00
65360;PMS5003;51958;55.018;73.536;2024-02-26T04:19:56;38.33;30.33;20.00
65360;PMS5003;51958;55.018;73.536;2024-02-26T04:22:58;40.00;31.00;21.00
65360;PMS5003;51958;55.018;73.536;2024-02-26T04:25:59;36.50;29.50;19.00
65360;PMS5003;51958;55.018;73.536;2024-02-26T04:29:00;36.00;29.00;19.00
65360;PMS5003;51958;55.018;73.536;2024-02-26T04:32:02;37.50;29.00;19.00
65360;PMS5003;51958;55.018;73.536;2024-02-26T04:35:03;40.50;31.00;20.50
65360;PMS5003;51958;55.018;73.536;2024-02-26T04:38:05;40.00;31.33;21.00
65360;PMS5003;51958;55.018;73.536;2024-02-26T04:41:06;41.00;33.00;21.33
65360;PMS5003;51958;55.018;73.536;2024-02-26T04:44:07;40.33;31.00;21.00
65360;PMS5003;51958;55.018;73.536;2024-02-26T04:47:09;39.00;30.00;20.00
65360;PMS5003;51958;55.018;73.536;2024-02-26T04:50:10;37.00;30.00;20.00
65360;PMS5003;51958;55.018;73.536;2024-02-26T04:53:11;37.33;29.33;19.00
65360;PMS5003;51958;55.018;73.536;2024-02-26T04:56:13;37.00;29.00;18.33
65360;PMS5003;51958;55.018;73.536;2024-02-26T04:59:14;35.33;29.00;19.00
65360;PMS5003;51958;55.018;73.536;2024-02-26T05:02:16;35.00;29.00;19.00
65360;PMS5003;51958;55.018;73.536;2024-02-26T05:05:17;34.00;28.00;19.00
65360;PMS5003;51958;55.018;73.536;2024-02-26T05:08:19;39.33;31.33;20.00
65360;PMS5003;51958;55.018;73.536;2024-02-26T05:11:20;42.00;33.00;20.50
65360;PMS5003;51958;55.018;73.536;2024-02-26T05:14:21;43.33;33.00;22.00
65360;PMS5003;51958;55.018;73.536;2024-02-26T05:17:23;44.00;34.50;22.00
65360;PMS5003;51958;55.018;73.536;2024-02-26T05:20:25;40.00;32.00;20.00
65360;PMS5003;51958;55.018;73.536;2024-02-26T05:23:26;36.33;31.00;20.00
65360;PMS5003;51958;55.018;73.536;2024-02-26T05:26:27;40.00;32.00;21.00
65360;PMS5003;51958;55.018;73.536;2024-02-26T05:29:29;42.00;33.00;20.00
65360;PMS5003;51958;55.018;73.536;2024-02-26T05:32:30;42.00;32.00;20.00
65360;PMS5003;51958;55.018;73.536;2024-02-26T05:35:31;40.00;32.00;20.00
65360;PMS5003;51958;55.018;73.536;2024-02-26T05:38:32;44.50;34.00;21.00
65360;PMS5003;51958;55.018;73.536;2024-02-26T05:41:34;42.00;32.00;21.00
65360;PMS5003;51958;55.018;73.536;2024-02-26T05:44:35;41.00;32.00;20.00
65360;PMS5003;51958;55.018;73.536;2024-02-26T05:47:36;41.00;32.50;21.00
65360;PMS5003;51958;55.018;73.536;2024-02-26T05:50:43;45.50;35.50;22.50
65360;PMS5003;51958;55.018;73.536;2024-02-26T05:53:44;45.33;35.00;22.00
65360;PMS5003;51958;55.018;73.536;2024-02-26T05:56:46;42.00;34.00;21.00
65360;PMS5003;51958;55.018;73.536;2024-02-26T05:59:47;39.00;32.00;21.00
65360;PMS5003;51958;55.018;73.536;2024-02-26T06:02:48;42.00;33.50;21.00
65360;PMS5003;51958;55.018;73.536;2024-02-26T06:05:50;41.00;32.00;20.50
65360;PMS5003;51958;55.018;73.536;2024-02-26T06:08:51;37.50;30.50;20.00
65360;PMS5003;51958;55.018;73.536;2024-02-26T06:11:52;39.00;30.00;21.00
65360;PMS5003;51958;55.018;73.536;2024-02-26T06:14:54;36.00;29.50;19.00
65360;PMS5003;51958;55.018;73.536;2024-02-26T06:17:55;36.33;29.00;20.00
65360;PMS5003;51958;55.018;73.536;2024-02-26T06:20:56;40.00;30.00;19.00
65360;PMS5003;51958;55.018;73.536;2024-02-26T06:23:58;38.00;30.00;21.00
65360;PMS5003;51958;55.018;73.536;2024-02-26T06:27:00;35.33;29.00;19.33
65360;PMS5003;51958;55.018;73.536;2024-02-26T06:30:01;35.00;28.33;19.00
65360;PMS5003;51958;55.018;73.536;2024-02-26T06:33:02;33.00;26.00;18.00
65360;PMS5003;51958;55.018;73.536;2024-02-26T06:36:04;31.33;27.00;17.00
65360;PMS5003;51958;55.018;73.536;2024-02-26T06:39:05;34.00;27.00;18.00
65360;PMS5003;51958;55.018;73.536;2024-02-26T06:42:07;32.00;25.00;16.00
65360;PMS5003;51958;55.018;73.536;2024-02-26T06:45:08;31.00;25.00;16.00
65360;PMS5003;51958;55.018;73.536;2024-02-26T06:48:09;30.00;25.00;16.00
65360;PMS5003;51958;55.018;73.536;2024-02-26T06:51:12;26.50;24.00;16.00
65360;PMS5003;51958;55.018;73.536;2024-02-26T06:54:14;24.00;22.00;15.00
65360;PMS5003;51958;55.018;73.536;2024-02-26T06:57:15;23.00;21.00;15.00
65360;PMS5003;51958;55.018;73.536;2024-02-26T07:00:16;23.50;20.50;14.50
65360;PMS5003;51958;55.018;73.536;2024-02-26T07:03:18;21.00;20.00;14.00
65360;PMS5003;51958;55.018;73.536;2024-02-26T07:06:19;20.00;19.00;13.00
65360;PMS5003;51958;55.018;73.536;2024-02-26T07:09:20;23.00;20.00;14.00
65360;PMS5003;51958;55.018;73.536;2024-02-26T07:12:22;24.00;22.50;14.00
65360;PMS5003;51958;55.018;73.536;2024-02-26T07:15:23;26.50;23.00;15.00
65360;PMS5003;51958;55.018;73.536;2024-02-26T07:18:24;27.00;23.00;15.00
65360;PMS5003;51958;55.018;73.536;2024-02-26T07:21:28;25.00;21.00;15.00
65360;PMS5003;51958;55.018;73.536;2024-02-26T07:24:30;23.00;21.00;14.00
65360;PMS5003;51958;55.018;73.536;2024-02-26T07:27:31;24.00;21.00;15.00
65360;PMS5003;51958;55.018;73.536;2024-02-26T07:30:32;25.00;21.00;14.00
65360;PMS5003;51958;55.018;73.536;2024-02-26T07:33:34;24.50;20.50;14.00
65360;PMS5003;51958;55.018;73.536;2024-02-26T07:36:35;23.00;23.00;14.00
65360;PMS5003;51958;55.018;73.536;2024-02-26T07:39:36;24.00;22.00;14.00
65360;PMS5003;51958;55.018;73.536;2024-02-26T07:42:38;24.00;20.50;14.00
65360;PMS5003;51958;55.018;73.536;2024-02-26T07:45:40;23.00;20.00;14.00
65360;PMS5003;51958;55.018;73.536;2024-02-26T07:48:41;22.00;19.50;13.00
65360;PMS5003;51958;55.018;73.536;2024-02-26T07:51:44;21.00;20.00;14.00
65360;PMS5003;51958;55.018;73.536;2024-02-26T07:54:46;22.67;21.00;13.00
65360;PMS5003;51958;55.018;73.536;2024-02-26T07:57:47;24.00;23.00;13.50
65360;PMS5003;51958;55.018;73.536;2024-02-26T08:00:48;25.00;22.00;15.00
65360;PMS5003;51958;55.018;73.536;2024-02-26T08:03:49;23.00;23.00;15.00
65360;PMS5003;51958;55.018;73.536;2024-02-26T08:06:51;26.00;23.00;15.00
65360;PMS5003;51958;55.018;73.536;2024-02-26T08:09:52;24.00;22.00;14.00
65360;PMS5003;51958;55.018;73.536;2024-02-26T08:12:53;23.00;22.00;14.00
65360;PMS5003;51958;55.018;73.536;2024-02-26T08:15:54;20.00;20.00;13.00
65360;PMS5003;51958;55.018;73.536;2024-02-26T08:18:56;23.00;21.00;13.50
65360;PMS5003;51958;55.018;73.536;2024-02-26T08:22:00;23.00;21.00;13.67
65360;PMS5003;51958;55.018;73.536;2024-02-26T08:25:02;23.00;22.00;14.00
65360;PMS5003;51958;55.018;73.536;2024-02-26T08:28:07;26.00;23.00;15.00
65360;PMS5003;51958;55.018;73.536;2024-02-26T08:31:08;24.00;23.00;16.00
65360;PMS5003;51958;55.018;73.536;2024-02-26T08:34:10;26.00;24.00;16.00
65360;PMS5003;51958;55.018;73.536;2024-02-26T08:37:11;25.00;24.00;16.00
65360;PMS5003;51958;55.018;73.536;2024-02-26T08:40:13;27.00;24.00;15.50
65360;PMS5003;51958;55.018;73.536;2024-02-26T08:43:14;25.50;23.00;15.00
65360;PMS5003;51958;55.018;73.536;2024-02-26T08:46:15;26.00;23.00;15.00
65360;PMS5003;51958;55.018;73.536;2024-02-26T08:49:17;26.00;23.00;15.00
65360;PMS5003;51958;55.018;73.536;2024-02-26T08:52:18;29.00;24.00;15.00
65360;PMS5003;51958;55.018;73.536;2024-02-26T08:55:19;29.00;25.00;16.00
65360;PMS5003;51958;55.018;73.536;2024-02-26T08:58:20;28.00;25.00;16.00
65360;PMS5003;51958;55.018;73.536;2024-02-26T09:01:22;24.00;20.00;15.00
65360;PMS5003;51958;55.018;73.536;2024-02-26T09:04:24;19.00;17.50;13.00
65360;PMS5003;51958;55.018;73.536;2024-02-26T09:07:25;18.00;17.00;11.00
65360;PMS5003;51958;55.018;73.536;2024-02-26T09:10:26;19.00;17.00;8.00
65360;PMS5003;51958;55.018;73.536;2024-02-26T09:13:28;17.00;15.00;6.00
65360;PMS5003;51958;55.018;73.536;2024-02-26T09:16:29;16.00;15.00;7.00
65360;PMS5003;51958;55.018;73.536;2024-02-26T09:19:31;17.50;16.00;9.50
65360;PMS5003;51958;55.018;73.536;2024-02-26T09:22:32;18.50;17.00;9.00
65360;PMS5003;51958;55.018;73.536;2024-02-26T09:25:35;18.00;16.00;9.00
65360;PMS5003;51958;55.018;73.536;2024-02-26T09:28:37;16.00;16.00;7.00
65360;PMS5003;51958;55.018;73.536;2024-02-26T09:31:39;16.67;14.33;6.00
65360;PMS5003;51958;55.018;73.536;2024-02-26T09:34:42;21.00;16.00;8.00
65360;PMS5003;51958;55.018;73.536;2024-02-26T09:37:43;19.50;17.50;9.50
65360;PMS5003;51958;55.018;73.536;2024-02-26T09:40:45;19.00;18.00;10.00
65360;PMS5003;51958;55.018;73.536;2024-02-26T09:43:46;19.00;18.00;10.00
65360;PMS5003;51958;55.018;73.536;2024-02-26T09:46:49;19.00;19.00;9.00
65360;PMS5003;51958;55.018;73.536;2024-02-26T09:49:52;19.00;18.00;10.50
65360;PMS5003;51958;55.018;73.536;2024-02-26T09:52:54;19.00;19.00;11.00
65360;PMS5003;51958;55.018;73.536;2024-02-26T09:55:55;20.00;19.00;12.00
65360;PMS5003;51958;55.018;73.536;2024-02-26T09:58:57;22.00;16.33;12.00
65360;PMS5003;51958;55.018;73.536;2024-02-26T10:01:59;17.33;15.00;7.00
65360;PMS5003;51958;55.018;73.536;2024-02-26T10:05:02;15.00;13.00;6.00
65360;PMS5003;51958;55.018;73.536;2024-02-26T10:08:06;15.00;12.00;6.00
65360;PMS5003;51958;55.018;73.536;2024-02-26T10:11:07;15.00;13.00;6.00
65360;PMS5003;51958;55.018;73.536;2024-02-26T10:14:09;14.00;13.00;6.00
65360;PMS5003;51958;55.018;73.536;2024-02-26T10:17:10;16.00;14.00;6.50
65360;PMS5003;51958;55.018;73.536;2024-02-26T10:20:13;21.00;19.33;10.33
65360;PMS5003;51958;55.018;73.536;2024-02-26T10:23:18;19.00;17.33;10.67
65360;PMS5003;51958;55.018;73.536;2024-02-26T10:26:20;16.00;15.00;6.00
65360;PMS5003;51958;55.018;73.536;2024-02-26T10:29:21;14.00;13.00;5.00
65360;PMS5003;51958;55.018;73.536;2024-02-26T10:32:23;14.00;14.00;5.00
65360;PMS5003;51958;55.018;73.536;2024-02-26T10:35:24;15.00;14.00;6.00
65360;PMS5003;51958;55.018;73.536;2024-02-26T10:38:26;20.00;19.00;11.00
65360;PMS5003;51958;55.018;73.536;2024-02-26T10:41:28;25.50;23.00;14.00
65360;PMS5003;51958;55.018;73.536;2024-02-26T10:44:29;24.00;22.00;14.00
65360;PMS5003;51958;55.018;73.536;2024-02-26T10:47:51;23.00;22.00;14.50
65360;PMS5003;51958;55.018;73.536;2024-02-26T10:50:53;23.33;22.00;14.67
65360;PMS5003;51958;55.018;73.536;2024-02-26T10:53:57;24.00;21.33;15.00
65360;PMS5003;51958;55.018;73.536;2024-02-26T10:57:00;24.33;22.00;15.00
65360;PMS5003;51958;55.018;73.536;2024-02-26T11:00:02;25.00;22.00;15.00
65360;PMS5003;51958;55.018;73.536;2024-02-26T11:03:05;25.00;22.67;15.00
65360;PMS5003;51958;55.018;73.536;2024-02-26T11:06:08;25.50;23.00;15.00
65360;PMS5003;51958;55.018;73.536;2024-02-26T11:09:12;24.00;22.00;15.00
65360;PMS5003;51958;55.018;73.536;2024-02-26T11:12:14;22.50;22.00;15.00
65360;PMS5003;51958;55.018;73.536;2024-02-26T11:15:15;24.00;22.00;14.00
65360;PMS5003;51958;55.018;73.536;2024-02-26T11:18:18;24.00;23.00;15.00
65360;PMS5003;51958;55.018;73.536;2024-02-26T11:21:20;24.00;22.00;14.00
65360;PMS5003;51958;55.018;73.536;2024-02-26T11:24:30;22.00;20.00;14.00
65360;PMS5003;51958;55.018;73.536;2024-02-26T11:27:35;23.00;20.00;12.00
65360;PMS5003;51958;55.018;73.536;2024-02-26T11:30:38;20.00;19.00;12.00
65360;PMS5003;51958;55.018;73.536;2024-02-26T11:33:42;25.50;22.00;15.00
65360;PMS5003;51958;55.018;73.536;2024-02-26T11:36:43;29.00;24.00;16.00
65360;PMS5003;51958;55.018;73.536;2024-02-26T11:39:45;27.00;23.00;15.00
65360;PMS5003;51958;55.018;73.536;2024-02-26T11:42:46;26.00;22.00;15.00
65360;PMS5003;51958;55.018;73.536;2024-02-26T11:45:51;28.00;22.00;14.00
65360;PMS5003;51958;55.018;73.536;2024-02-26T11:49:00;23.00;22.00;14.00
65360;PMS5003;51958;55.018;73.536;2024-02-26T11:52:06;22.00;20.00;14.00
65360;PMS5003;51958;55.018;73.536;2024-02-26T11:55:07;22.00;20.00;13.00
65360;PMS5003;51958;55.018;73.536;2024-02-26T11:58:10;19.00;19.00;13.00
65360;PMS5003;51958;55.018;73.536;2024-02-26T12:04:31;22.00;19.00;13.00
65360;PMS5003;51958;55.018;73.536;2024-02-26T12:07:34;20.00;19.00;12.00
65360;PMS5003;51958;55.018;73.536;2024-02-26T12:10:39;22.00;20.00;13.00
65360;PMS5003;51958;55.018;73.536;2024-02-26T12:13:40;22.00;21.00;14.00
65360;PMS5003;51958;55.018;73.536;2024-02-26T12:16:41;25.00;21.00;14.00
65360;PMS5003;51958;55.018;73.536;2024-02-26T12:19:46;25.00;22.00;14.00
65360;PMS5003;51958;55.018;73.536;2024-02-26T12:22:49;24.00;22.00;15.00
65360;PMS5003;51958;55.018;73.536;2024-02-26T12:25:51;25.00;22.00;14.00
65360;PMS5003;51958;55.018;73.536;2024-02-26T12:29:01;30.00;23.00;16.00
65360;PMS5003;51958;55.018;73.536;2024-02-26T12:32:08;29.00;25.00;17.00
65360;PMS5003;51958;55.018;73.536;2024-02-26T12:35:27;28.00;24.00;15.00
65360;PMS5003;51958;55.018;73.536;2024-02-26T12:38:28;26.00;24.00;16.00
65360;PMS5003;51958;55.018;73.536;2024-02-26T12:41:31;26.00;22.00;15.00
65360;PMS5003;51958;55.018;73.536;2024-02-26T12:44:32;28.00;23.33;15.33
65360;PMS5003;51958;55.018;73.536;2024-02-26T12:47:34;29.00;24.00;15.50
65360;PMS5003;51958;55.018;73.536;2024-02-26T12:50:36;28.00;23.00;16.00
65360;PMS5003;51958;55.018;73.536;2024-02-26T12:53:37;29.00;24.00;17.00
65360;PMS5003;51958;55.018;73.536;2024-02-26T12:56:39;29.00;24.00;16.00
65360;PMS5003;51958;55.018;73.536;2024-02-26T12:59:51;29.33;23.00;14.00
65360;PMS5003;51958;55.018;73.536;2024-02-26T13:02:52;29.00;24.00;15.00
65360;PMS5003;51958;55.018;73.536;2024-02-26T13:06:15;28.00;23.00;15.00
65360;PMS5003;51958;55.018;73.536;2024-02-26T13:09:17;29.00;24.00;15.00
65360;PMS5003;51958;55.018;73.536;2024-02-26T13:12:19;28.67;24.00;16.00
65360;PMS5003;51958;55.018;73.536;2024-02-26T13:15:21;28.00;24.00;16.00
65360;PMS5003;51958;55.018;73.536;2024-02-26T13:18:27;25.00;23.00;14.00
65360;PMS5003;51958;55.018;73.536;2024-02-26T13:21:28;22.00;20.00;14.00
65360;PMS5003;51958;55.018;73.536;2024-02-26T13:24:29;23.00;21.00;14.00
65360;PMS5003;51958;55.018;73.536;2024-02-26T13:27:32;27.67;22.00;14.00
65360;PMS5003;51958;55.018;73.536;2024-02-26T13:30:33;25.00;22.00;14.00
65360;PMS5003;51958;55.018;73.536;2024-02-26T13:33:34;26.33;22.33;14.00
65360;PMS5003;51958;55.018;73.536;2024-02-26T13:36:35;27.67;23.33;16.00
65360;PMS5003;51958;55.018;73.536;2024-02-26T13:39:37;31.00;24.00;16.33
65360;PMS5003;51958;55.018;73.536;2024-02-26T13:42:38;33.00;25.00;16.33
65360;PMS5003;51958;55.018;73.536;2024-02-26T13:45:40;33.00;26.33;17.00
65360;PMS5003;51958;55.018;73.536;2024-02-26T13:48:41;34.00;28.00;17.00
65360;PMS5003;51958;55.018;73.536;2024-02-26T13:51:43;36.00;30.00;19.00
65360;PMS5003;51958;55.018;73.536;2024-02-26T13:54:44;37.67;31.00;20.00
65360;PMS5003;51958;55.018;73.536;2024-02-26T13:57:45;38.33;31.00;19.33
65360;PMS5003;51958;55.018;73.536;2024-02-26T14:00:47;36.00;29.00;19.00
65360;PMS5003;51958;55.018;73.536;2024-02-26T14:03:48;31.00;25.00;16.33
65360;PMS5003;51958;55.018;73.536;2024-02-26T14:06:50;27.00;24.67;16.00
65360;PMS5003;51958;55.018;73.536;2024-02-26T14:09:52;30.33;25.00;16.00
65360;PMS5003;51958;55.018;73.536;2024-02-26T14:12:54;27.00;23.67;16.00
65360;PMS5003;51958;55.018;73.536;2024-02-26T14:15:55;24.00;22.00;14.00
65360;PMS5003;51958;55.018;73.536;2024-02-26T14:18:57;23.00;20.00;14.00
65360;PMS5003;51958;55.018;73.536;2024-02-26T14:21:58;20.00;18.00;11.00
65360;PMS5003;51958;55.018;73.536;2024-02-26T14:24:59;22.00;19.00;10.67
65360;PMS5003;51958;55.018;73.536;2024-02-26T14:28:00;22.50;19.00;11.00
65360;PMS5003;51958;55.018;73.536;2024-02-26T14:31:02;22.00;19.33;12.00
65360;PMS5003;51958;55.018;73.536;2024-02-26T14:34:05;22.00;21.00;13.00
65360;PMS5003;51958;55.018;73.536;2024-02-26T14:37:06;24.33;22.00;13.33
65360;PMS5003;51958;55.018;73.536;2024-02-26T14:40:07;27.00;23.33;15.00
65360;PMS5003;51958;55.018;73.536;2024-02-26T14:43:09;29.67;24.67;16.00
65360;PMS5003;51958;55.018;73.536;2024-02-26T14:46:11;32.00;25.00;16.00
65360;PMS5003;51958;55.018;73.536;2024-02-26T14:49:12;32.00;26.00;16.00
65360;PMS5003;51958;55.018;73.536;2024-02-26T14:52:14;34.00;27.00;17.00
65360;PMS5003;51958;55.018;73.536;2024-02-26T14:55:16;33.00;27.00;16.67
65360;PMS5003;51958;55.018;73.536;2024-02-26T14:58:18;35.00;27.00;16.00
65360;PMS5003;51958;55.018;73.536;2024-02-26T15:01:20;34.00;27.00;16.67
65360;PMS5003;51958;55.018;73.536;2024-02-26T15:04:22;32.33;26.00;16.00
65360;PMS5003;51958;55.018;73.536;2024-02-26T15:07:23;34.33;27.00;17.67
65360;PMS5003;51958;55.018;73.536;2024-02-26T15:10:25;34.00;28.00;18.33
65360;PMS5003;51958;55.018;73.536;2024-02-26T15:13:26;34.00;28.00;18.33
65360;PMS5003;51958;55.018;73.536;2024-02-26T15:16:27;35.33;28.33;18.00
65360;PMS5003;51958;55.018;73.536;2024-02-26T15:19:30;35.33;27.67;19.00
65360;PMS5003;51958;55.018;73.536;2024-02-26T15:22:31;35.33;28.00;18.00
65360;PMS5003;51958;55.018;73.536;2024-02-26T15:25:35;32.33;26.00;16.00
65360;PMS5003;51958;55.018;73.536;2024-02-26T15:28:37;31.00;25.00;16.00
65360;PMS5003;51958;55.018;73.536;2024-02-26T15:31:39;30.67;26.00;16.00
65360;PMS5003;51958;55.018;73.536;2024-02-26T15:34:40;31.67;24.67;16.00
65360;PMS5003;51958;55.018;73.536;2024-02-26T15:37:42;32.00;24.50;16.00
65360;PMS5003;51958;55.018;73.536;2024-02-26T15:40:43;31.33;24.00;16.00
65360;PMS5003;51958;55.018;73.536;2024-02-26T15:43:47;31.00;24.00;16.00
65360;PMS5003;51958;55.018;73.536;2024-02-26T15:46:48;32.00;25.00;16.00
65360;PMS5003;51958;55.018;73.536;2024-02-26T15:49:50;32.33;25.00;16.00
65360;PMS5003;51958;55.018;73.536;2024-02-26T15:52:51;30.00;24.00;16.00
65360;PMS5003;51958;55.018;73.536;2024-02-26T15:55:52;28.00;23.00;15.00
65360;PMS5003;51958;55.018;73.536;2024-02-26T15:58:53;30.50;24.50;15.00
65360;PMS5003;51958;55.018;73.536;2024-02-26T16:01:55;31.00;26.00;16.00
65360;PMS5003;51958;55.018;73.536;2024-02-26T16:04:56;27.50;23.00;15.00
65360;PMS5003;51958;55.018;73.536;2024-02-26T16:07:59;26.00;23.00;15.00
65360;PMS5003;51958;55.018;73.536;2024-02-26T16:11:03;23.00;21.00;15.00
65360;PMS5003;51958;55.018;73.536;2024-02-26T16:14:25;24.00;21.00;14.00
65360;PMS5003;51958;55.018;73.536;2024-02-26T16:17:32;23.00;20.00;14.00
65360;PMS5003;51958;55.018;73.536;2024-02-26T16:20:37;23.00;19.50;13.00
65360;PMS5003;51958;55.018;73.536;2024-02-26T16:23:39;19.50;18.00;12.50
65360;PMS5003;51958;55.018;73.536;2024-02-26T16:26:40;18.00;17.00;12.50
65360;PMS5003;51958;55.018;73.536;2024-02-26T16:29:42;19.00;17.50;13.00
65360;PMS5003;51958;55.018;73.536;2024-02-26T16:32:43;20.50;17.00;13.00
65360;PMS5003;51958;55.018;73.536;2024-02-26T16:35:44;22.00;18.00;13.00
65360;PMS5003;51958;55.018;73.536;2024-02-26T16:38:46;20.00;18.00;11.50
65360;PMS5003;51958;55.018;73.536;2024-02-26T16:41:47;21.50;20.00;13.00
65360;PMS5003;51958;55.018;73.536;2024-02-26T16:44:48;24.00;21.00;13.50
65360;PMS5003;51958;55.018;73.536;2024-02-26T16:47:50;28.00;21.00;14.00
65360;PMS5003;51958;55.018;73.536;2024-02-26T16:50:52;25.50;21.00;13.00